createdAt,value
2023-05-13T00:02:25.977Z,2.75
2023-05-13T00:04:52.897Z,2.47
2023-05-13T00:07:20.113Z,1.92
2023-05-13T00:09:46.989Z,2.30
2023-05-13T00:12:13.921Z,2.30
2023-05-13T00:14:40.959Z,1.98
2023-05-13T00:17:07.902Z,2.45
2023-05-13T00:19:34.832Z,1.85
2023-05-13T00:22:01.722Z,2.15
2023-05-13T00:24:28.735Z,2.08
2023-05-13T00:26:55.539Z,2.10
2023-05-13T00:29:22.584Z,2.60
2023-05-13T00:31:49.475Z,2.22
2023-05-13T00:34:17.049Z,2.53
2023-05-13T00:36:44.602Z,2.67
2023-05-13T00:39:11.786Z,3.42
2023-05-13T00:42:04.549Z,3.83
2023-05-13T00:44:31.709Z,3.53
2023-05-13T00:46:59.381Z,3.50
2023-05-13T00:49:27.019Z,3.70
2023-05-13T00:51:55.342Z,3.55
2023-05-13T00:54:22.457Z,2.67
2023-05-13T00:56:49.354Z,2.80
2023-05-13T00:59:16.223Z,2.90
2023-05-13T01:02:10.883Z,3.63
2023-05-13T01:04:44.076Z,3.25
2023-05-13T01:07:22.803Z,2.85
2023-05-13T01:10:16.041Z,2.83
2023-05-13T01:12:46.628Z,2.85
2023-05-13T01:15:21.933Z,2.78
2023-05-13T01:18:00.008Z,2.88
2023-05-13T01:20:28.474Z,2.83
2023-05-13T01:22:56.716Z,2.33
2023-05-13T01:25:25.789Z,2.45
2023-05-13T01:27:53.549Z,2.53
2023-05-13T01:30:21.820Z,3.00
2023-05-13T01:32:50.491Z,2.95
2023-05-13T01:35:18.055Z,3.20
2023-05-13T01:37:49.095Z,3.20
2023-05-13T01:40:31.210Z,3.10
2023-05-13T01:43:02.094Z,3.10
2023-05-13T01:45:30.410Z,2.88
2023-05-13T01:47:57.894Z,3.00
2023-05-13T01:50:26.722Z,3.25
2023-05-13T01:52:53.694Z,2.95
2023-05-13T01:55:20.819Z,3.03
2023-05-13T01:57:48.842Z,2.85
2023-05-13T02:00:16.429Z,3.13
2023-05-13T02:02:43.203Z,3.03
2023-05-13T02:05:10.646Z,3.28
2023-05-13T02:07:38.285Z,3.30
2023-05-13T02:10:06.450Z,3.92
2023-05-13T02:12:33.453Z,4.10
2023-05-13T02:15:00.504Z,4.63
2023-05-13T02:17:27.481Z,3.45
2023-05-13T02:19:54.550Z,3.50
2023-05-13T02:22:21.378Z,2.67
2023-05-13T02:24:48.363Z,3.13
2023-05-13T02:27:16.497Z,2.80
2023-05-13T02:29:43.537Z,2.47
2023-05-13T02:32:11.437Z,3.10
2023-05-13T02:34:38.598Z,2.97
2023-05-13T02:37:05.949Z,2.90
2023-05-13T02:39:38.166Z,3.13
2023-05-13T02:42:05.727Z,2.90
2023-05-13T02:44:33.105Z,2.92
2023-05-13T02:47:01.051Z,4.47
2023-05-13T02:49:28.101Z,3.58
2023-05-13T02:51:55.273Z,3.55
2023-05-13T02:54:29.089Z,3.50
2023-05-13T02:56:56.211Z,3.63
2023-05-13T02:59:23.307Z,4.03
2023-05-13T03:01:50.350Z,3.45
2023-05-13T03:04:17.381Z,3.13
2023-05-13T03:06:44.550Z,2.75
2023-05-13T03:09:11.345Z,3.92
2023-05-13T03:11:38.386Z,2.83
2023-05-13T03:14:05.674Z,2.95
2023-05-13T03:16:32.869Z,3.33
2023-05-13T03:18:59.975Z,3.00
2023-05-13T03:21:27.279Z,3.38
2023-05-13T03:23:54.354Z,3.72
2023-05-13T03:26:21.955Z,5.32
2023-05-13T03:28:48.868Z,4.50
2023-05-13T03:31:16.882Z,3.83
2023-05-13T03:33:44.299Z,7.20
2023-05-13T03:36:12.513Z,10.75
2023-05-13T03:38:39.349Z,9.13
2023-05-13T03:41:06.420Z,6.72
2023-05-13T03:43:34.028Z,6.85
2023-05-13T03:46:03.752Z,5.65
2023-05-13T03:48:31.270Z,5.82
2023-05-13T03:51:02.050Z,5.93
2023-05-13T03:53:29.505Z,3.92
2023-05-13T03:55:56.350Z,3.67
2023-05-13T03:58:23.420Z,4.45
2023-05-13T04:00:50.346Z,3.97
2023-05-13T04:03:17.808Z,4.20
2023-05-13T04:05:48.380Z,5.28
2023-05-13T04:08:16.017Z,6.37
2023-05-13T04:10:43.703Z,7.53
2023-05-13T04:13:11.410Z,6.40
2023-05-13T04:15:38.500Z,3.60
2023-05-13T04:18:06.818Z,2.92
2023-05-13T04:20:34.904Z,3.80
2023-05-13T04:23:01.961Z,3.53
2023-05-13T04:25:29.885Z,3.33
2023-05-13T04:27:56.945Z,4.05
2023-05-13T04:30:29.899Z,3.40
2023-05-13T04:32:57.481Z,3.45
2023-05-13T04:35:24.875Z,3.42
2023-05-13T04:37:55.620Z,3.88
2023-05-13T04:40:23.218Z,3.70
2023-05-13T04:42:54.880Z,3.03
2023-05-13T04:45:29.618Z,3.08
2023-05-13T04:47:58.503Z,3.28
2023-05-13T04:50:25.590Z,2.95
2023-05-13T04:52:55.008Z,3.00
2023-05-13T04:55:23.041Z,3.67
2023-05-13T04:57:50.973Z,3.30
2023-05-13T05:00:18.781Z,3.15
2023-05-13T05:02:48.977Z,2.80
2023-05-13T05:05:18.257Z,2.97
2023-05-13T05:07:46.353Z,3.00
2023-05-13T05:10:15.231Z,3.10
2023-05-13T05:12:48.770Z,2.67
2023-05-13T05:15:15.996Z,3.08
2023-05-13T05:17:46.421Z,3.70
2023-05-13T05:20:13.660Z,3.47
2023-05-13T05:22:42.349Z,3.65
2023-05-13T05:25:13.480Z,3.08
2023-05-13T05:27:43.435Z,3.72
2023-05-13T05:30:11.368Z,3.88
2023-05-13T05:35:39.791Z,3.20
2023-05-13T05:38:12.658Z,3.35
2023-05-13T05:40:48.695Z,3.33
2023-05-13T05:43:16.620Z,4.13
2023-05-13T05:45:44.385Z,3.40
2023-05-13T05:48:15.726Z,3.40
2023-05-13T05:50:43.000Z,3.90
2023-05-13T05:53:13.107Z,3.67
2023-05-13T05:55:40.486Z,4.03
2023-05-13T05:58:19.849Z,3.85
2023-05-13T06:00:47.089Z,3.15
2023-05-13T06:03:14.348Z,2.75
2023-05-13T06:05:41.683Z,3.33
2023-05-13T06:08:08.647Z,2.60
2023-05-13T06:10:35.478Z,2.60
2023-05-13T06:13:02.590Z,2.20
2023-05-13T06:15:30.159Z,2.60
2023-05-13T06:17:57.754Z,2.30
2023-05-13T06:20:25.353Z,1.90
2023-05-13T06:22:52.421Z,2.03
2023-05-13T06:25:19.298Z,2.30
2023-05-13T06:27:46.579Z,2.40
2023-05-13T06:30:13.565Z,2.15
2023-05-13T06:32:53.464Z,1.80
2023-05-13T06:35:27.637Z,2.20
2023-05-13T06:37:54.724Z,1.90
2023-05-13T06:40:22.182Z,2.47
2023-05-13T06:42:49.440Z,2.60
2023-05-13T06:45:23.648Z,1.85
2023-05-13T06:47:51.801Z,1.80
2023-05-13T06:50:19.805Z,1.95
2023-05-13T06:52:47.360Z,1.80
2023-05-13T06:55:14.926Z,1.70
2023-05-13T06:57:43.808Z,2.08
2023-05-13T07:00:11.624Z,1.75
2023-05-13T07:02:39.265Z,1.83
2023-05-13T07:05:06.926Z,2.15
2023-05-13T07:07:34.488Z,1.90
2023-05-13T07:10:01.608Z,1.50
2023-05-13T07:12:28.508Z,1.42
2023-05-13T07:14:55.594Z,1.48
2023-05-13T07:17:31.477Z,1.48
2023-05-13T07:19:58.447Z,1.60
2023-05-13T07:22:25.367Z,1.60
2023-05-13T07:24:52.430Z,1.10
2023-05-13T07:27:19.301Z,1.13
2023-05-13T07:29:46.553Z,1.88
2023-05-13T07:32:13.338Z,1.02
2023-05-13T07:34:40.764Z,1.20
2023-05-13T07:37:07.516Z,1.08
2023-05-13T07:39:34.343Z,1.23
2023-05-13T07:42:02.294Z,1.27
2023-05-13T07:44:29.924Z,1.08
2023-05-13T07:46:56.908Z,0.93
2023-05-13T07:49:24.089Z,1.10
2023-05-13T07:51:50.927Z,0.98
2023-05-13T07:54:18.666Z,1.00
2023-05-13T07:56:46.695Z,1.48
2023-05-13T07:59:13.716Z,0.98
2023-05-13T08:01:40.770Z,0.80
2023-05-13T08:04:08.092Z,0.80
2023-05-13T08:06:35.127Z,0.88
2023-05-13T08:09:02.255Z,0.90
2023-05-13T08:11:29.149Z,1.00
2023-05-13T08:13:56.044Z,1.10
2023-05-13T08:16:23.385Z,1.20
2023-05-13T08:18:50.404Z,0.90
2023-05-13T08:21:17.395Z,1.00
2023-05-13T08:23:45.866Z,0.80
2023-05-13T08:26:13.897Z,0.90
2023-05-13T08:28:42.281Z,0.82
2023-05-13T08:31:12.623Z,1.00
2023-05-13T08:33:41.911Z,1.25
2023-05-13T08:36:09.955Z,1.10
2023-05-13T08:38:36.807Z,1.02
2023-05-13T08:41:07.035Z,0.93
2023-05-13T08:43:34.536Z,1.08
2023-05-13T08:46:04.375Z,1.05
2023-05-13T08:48:32.344Z,1.50
2023-05-13T08:51:01.294Z,1.40
2023-05-13T08:53:28.611Z,1.00
2023-05-13T08:55:56.742Z,1.20
2023-05-13T08:58:25.255Z,1.50
2023-05-13T09:00:54.264Z,1.15
2023-05-13T09:03:21.719Z,1.13
2023-05-13T09:05:48.865Z,1.02
2023-05-13T09:08:15.629Z,1.10
2023-05-13T09:10:42.786Z,1.42
2023-05-13T09:13:12.082Z,1.27
2023-05-13T09:15:42.402Z,1.30
2023-05-13T09:18:09.523Z,1.00
2023-05-13T09:20:36.876Z,1.00
2023-05-13T09:23:09.277Z,1.10
2023-05-13T09:25:37.753Z,1.00
2023-05-13T09:28:07.751Z,0.70
2023-05-13T09:30:36.851Z,1.08
2023-05-13T09:33:12.133Z,1.00
2023-05-13T09:35:44.583Z,1.00
2023-05-13T09:38:39.242Z,1.02
2023-05-13T09:41:06.489Z,1.00
2023-05-13T09:43:33.928Z,0.93
2023-05-13T09:46:05.346Z,1.27
2023-05-13T09:51:07.588Z,0.80
2023-05-13T09:53:35.122Z,1.00
2023-05-13T09:56:38.224Z,1.02
2023-05-13T09:59:05.155Z,1.08
2023-05-13T10:01:35.133Z,1.40
2023-05-13T10:04:03.160Z,1.42
2023-05-13T10:06:31.245Z,0.70
2023-05-13T10:09:01.377Z,0.82
2023-05-13T10:11:31.464Z,0.63
2023-05-13T10:14:05.256Z,0.93
2023-05-13T10:16:32.437Z,0.82
2023-05-13T10:18:59.832Z,0.85
2023-05-13T10:21:31.175Z,1.00
2023-05-13T10:26:26.254Z,0.90
2023-05-13T10:28:55.282Z,0.90
2023-05-13T10:31:22.139Z,0.70
2023-05-13T10:33:49.255Z,0.68
2023-05-13T10:36:47.193Z,1.65
2023-05-13T10:39:32.752Z,0.70
2023-05-13T10:42:30.785Z,0.90
2023-05-13T10:45:01.531Z,0.73
2023-05-13T10:47:32.769Z,1.58
2023-05-13T10:50:04.963Z,1.10
2023-05-13T10:52:48.089Z,0.80
2023-05-13T10:55:17.412Z,0.70
2023-05-13T10:58:10.997Z,0.90
2023-05-13T11:01:08.009Z,0.77
2023-05-13T11:03:35.345Z,0.80
2023-05-13T11:06:16.478Z,0.80
2023-05-13T11:08:45.574Z,1.10
2023-05-13T11:11:21.430Z,0.98
2023-05-13T11:14:00.343Z,1.00
2023-05-13T11:16:27.403Z,0.90
2023-05-13T11:18:54.806Z,0.80
2023-05-13T11:21:35.778Z,0.90
2023-05-13T11:24:05.788Z,0.90
2023-05-13T11:26:46.925Z,0.90
2023-05-13T11:29:14.658Z,1.00
2023-05-13T11:31:50.354Z,1.13
2023-05-13T11:34:18.773Z,0.60
2023-05-13T11:36:56.813Z,0.70
2023-05-13T11:39:26.609Z,0.80
2023-05-13T11:41:57.303Z,1.17
2023-05-13T11:44:25.537Z,0.63
2023-05-13T11:46:59.622Z,1.00
2023-05-13T11:49:44.052Z,0.90
2023-05-13T11:52:12.063Z,0.70
2023-05-13T11:54:52.565Z,1.00
2023-05-13T11:57:19.762Z,0.93
2023-05-13T12:00:07.658Z,0.80
2023-05-13T12:02:40.536Z,0.82
2023-05-13T12:05:10.066Z,0.77
2023-05-13T12:07:38.468Z,0.85
2023-05-13T12:10:07.069Z,0.95
2023-05-13T12:12:36.078Z,0.80
2023-05-13T12:15:05.289Z,0.80
2023-05-13T12:17:34.261Z,0.85
2023-05-13T12:20:13.332Z,0.90
2023-05-13T12:22:43.587Z,0.88
2023-05-13T12:25:32.666Z,0.90
2023-05-13T12:28:00.437Z,0.90
2023-05-13T12:30:34.295Z,0.90
2023-05-13T12:33:01.780Z,1.00
2023-05-13T12:35:28.638Z,1.20
2023-05-13T12:38:05.538Z,1.00
2023-05-13T12:40:32.923Z,1.10
2023-05-13T12:43:03.454Z,1.00
2023-05-13T12:45:31.398Z,0.90
2023-05-13T12:47:59.392Z,0.90
2023-05-13T12:50:26.873Z,0.90
2023-05-13T12:52:54.558Z,0.90
2023-05-13T12:55:21.791Z,0.98
2023-05-13T12:58:03.245Z,0.90
2023-05-13T13:00:31.241Z,1.20
2023-05-13T13:02:58.211Z,1.10
2023-05-13T13:05:26.370Z,1.00
2023-05-13T13:07:53.411Z,1.17
2023-05-13T13:10:20.379Z,0.85
2023-05-13T13:12:47.433Z,1.08
2023-05-13T13:15:14.205Z,1.13
2023-05-13T13:17:41.016Z,1.40
2023-05-13T13:20:08.388Z,1.27
2023-05-13T13:22:39.143Z,1.60
2023-05-13T13:25:07.126Z,0.90
2023-05-13T13:27:35.171Z,1.00
2023-05-13T13:30:02.707Z,1.08
2023-05-13T13:32:29.839Z,1.00
2023-05-13T13:34:58.326Z,1.05
2023-05-13T13:37:25.849Z,1.35
2023-05-13T13:39:52.968Z,0.98
2023-05-13T13:42:20.320Z,1.00
2023-05-13T13:44:47.138Z,1.33
2023-05-13T13:47:14.856Z,0.95
2023-05-13T13:49:41.598Z,0.88
2023-05-13T13:52:08.599Z,1.10
2023-05-13T13:54:35.406Z,0.90
2023-05-13T13:57:02.495Z,1.02
2023-05-13T13:59:29.569Z,0.98
2023-05-13T14:01:56.879Z,1.00
2023-05-13T14:04:27.391Z,1.17
2023-05-13T14:06:57.779Z,1.13
2023-05-13T14:09:25.235Z,1.00
2023-05-13T14:11:52.077Z,1.02
2023-05-13T14:14:19.188Z,1.10
2023-05-13T14:16:46.132Z,1.20
2023-05-13T14:19:13.360Z,2.50
2023-05-13T14:21:40.383Z,1.05
2023-05-13T14:24:08.988Z,1.35
2023-05-13T14:26:35.879Z,1.10
2023-05-13T14:29:02.910Z,0.90
2023-05-13T14:31:30.515Z,1.13
2023-05-13T14:33:58.341Z,0.90
2023-05-13T14:36:26.836Z,1.00
2023-05-13T14:38:54.544Z,1.02
2023-05-13T14:41:22.747Z,1.00
2023-05-13T14:43:49.695Z,1.27
2023-05-13T14:46:16.682Z,0.90
2023-05-13T14:48:43.932Z,1.13
2023-05-13T14:51:12.443Z,1.63
2023-05-13T14:53:42.753Z,1.13
2023-05-13T14:56:09.982Z,0.77
2023-05-13T14:58:37.132Z,1.10
2023-05-13T15:01:04.266Z,0.90
2023-05-13T15:03:31.411Z,1.20
2023-05-13T15:05:58.384Z,0.93
2023-05-13T15:08:25.780Z,0.95
2023-05-13T15:10:52.697Z,0.88
2023-05-13T15:13:19.794Z,1.00
2023-05-13T15:15:46.889Z,1.10
2023-05-13T15:18:14.209Z,0.90
2023-05-13T15:20:41.442Z,3.50
2023-05-13T15:23:08.382Z,1.20
2023-05-13T15:25:36.157Z,1.00
2023-05-13T15:28:03.135Z,0.85
2023-05-13T15:30:30.237Z,0.85
2023-05-13T15:32:57.307Z,0.95
2023-05-13T15:35:24.278Z,0.85
2023-05-13T15:37:51.125Z,1.10
2023-05-13T15:40:17.959Z,1.05
2023-05-13T15:42:44.960Z,1.05
2023-05-13T15:45:12.055Z,1.30
2023-05-13T15:47:38.899Z,1.20
2023-05-13T15:50:06.994Z,0.82
2023-05-13T15:52:33.831Z,1.08
2023-05-13T15:55:01.069Z,1.00
2023-05-13T15:57:27.824Z,0.90
2023-05-13T15:59:54.834Z,0.90
2023-05-13T16:02:21.724Z,1.00
2023-05-13T16:04:48.700Z,0.90
2023-05-13T16:07:15.484Z,1.00
2023-05-13T16:09:42.626Z,1.08
2023-05-13T16:16:25.840Z,0.90
2023-05-13T16:18:54.209Z,1.25
2023-05-13T16:21:21.503Z,1.10
2023-05-13T16:23:48.341Z,1.15
2023-05-13T16:26:15.423Z,1.02
2023-05-13T16:28:42.202Z,0.85
2023-05-13T16:34:00.301Z,1.35
2023-05-13T16:36:27.195Z,0.90
2023-05-13T16:38:54.008Z,1.23
2023-05-13T16:41:21.582Z,1.35
2023-05-13T16:43:48.340Z,1.50
2023-05-13T16:46:16.681Z,1.42
2023-05-13T16:49:05.212Z,1.70
2023-05-13T16:51:32.034Z,2.80
2023-05-13T16:57:39.286Z,1.90
2023-05-13T17:00:07.449Z,1.45
2023-05-13T17:02:34.647Z,1.50
2023-05-13T17:05:01.620Z,2.00
2023-05-13T17:07:28.413Z,1.98
2023-05-13T17:09:55.474Z,1.92
2023-05-13T17:12:22.250Z,2.10
2023-05-13T17:14:50.394Z,2.22
2023-05-13T17:17:17.158Z,2.50
2023-05-13T17:19:44.188Z,3.20
2023-05-13T17:22:20.062Z,2.42
2023-05-13T17:24:47.174Z,2.28
2023-05-13T17:27:14.093Z,3.03
2023-05-13T17:29:41.141Z,4.40
2023-05-13T17:32:08.132Z,5.82
2023-05-13T17:34:35.144Z,6.43
2023-05-13T17:37:02.132Z,6.90
2023-05-13T17:39:28.926Z,8.00
2023-05-13T17:41:56.026Z,7.47
2023-05-13T17:44:24.001Z,7.72
2023-05-13T17:46:50.947Z,9.10
2023-05-13T17:49:17.964Z,7.88
2023-05-13T17:51:44.877Z,11.77
2023-05-13T17:54:11.774Z,19.17
2023-05-13T17:56:38.737Z,19.92
2023-05-13T17:59:06.684Z,24.75
2023-05-13T18:01:33.656Z,20.23
2023-05-13T18:04:00.890Z,17.65
2023-05-13T18:06:27.686Z,13.68
2023-05-13T18:08:54.715Z,10.02
2023-05-13T18:11:22.199Z,8.10
2023-05-13T18:13:49.120Z,9.18
2023-05-13T18:16:19.484Z,10.15
2023-05-13T18:18:48.627Z,7.50
2023-05-13T18:21:16.014Z,11.50
2023-05-13T18:23:45.809Z,8.02
2023-05-13T18:26:12.656Z,9.65
2023-05-13T18:28:41.597Z,9.02
2023-05-13T18:31:08.434Z,8.75
2023-05-13T18:33:35.385Z,10.70
2023-05-13T18:36:02.420Z,9.77
2023-05-13T18:38:29.207Z,13.48
2023-05-13T18:40:56.226Z,9.93
2023-05-13T18:43:23.228Z,7.68
2023-05-13T18:45:50.285Z,7.68
2023-05-13T18:48:17.509Z,6.18
2023-05-13T18:50:44.501Z,5.28
2023-05-13T18:53:11.419Z,4.50
2023-05-13T18:55:38.495Z,3.67
2023-05-13T18:58:05.415Z,4.68
2023-05-13T19:00:32.181Z,3.60
2023-05-13T19:02:59.503Z,3.58
2023-05-13T19:05:26.712Z,3.47
2023-05-13T19:07:53.693Z,4.00
2023-05-13T19:10:20.763Z,4.13
2023-05-13T19:12:47.801Z,3.88
2023-05-13T19:15:14.713Z,3.90
2023-05-13T19:17:42.294Z,4.07
2023-05-13T19:20:09.854Z,5.05
2023-05-13T19:22:36.958Z,5.13
2023-05-13T19:25:05.271Z,5.05
2023-05-13T19:27:32.364Z,6.20
2023-05-13T19:29:59.242Z,7.07
2023-05-13T19:32:26.344Z,5.95
2023-05-13T19:34:53.232Z,6.38
2023-05-13T19:37:20.442Z,5.75
2023-05-13T19:39:47.349Z,5.18
2023-05-13T19:42:15.248Z,5.70
2023-05-13T19:44:42.296Z,5.15
2023-05-13T19:47:09.383Z,4.65
2023-05-13T19:49:36.174Z,4.57
2023-05-13T19:52:03.284Z,4.50
2023-05-13T19:54:30.176Z,4.95
2023-05-13T19:56:57.356Z,4.55
2023-05-13T19:59:24.121Z,4.97
2023-05-13T20:01:52.079Z,5.18
2023-05-13T20:04:19.106Z,5.50
2023-05-13T20:06:46.065Z,4.30
2023-05-13T20:09:12.895Z,5.25
2023-05-13T20:11:39.822Z,5.07
2023-05-13T20:14:06.721Z,5.20
2023-05-13T20:16:33.653Z,4.22
2023-05-13T20:19:00.648Z,4.13
2023-05-13T20:21:27.712Z,4.22
2023-05-13T20:23:54.738Z,4.28
2023-05-13T20:26:22.025Z,4.35
2023-05-13T20:28:51.481Z,5.30
2023-05-13T20:31:18.497Z,4.82
2023-05-13T20:33:45.790Z,5.45
2023-05-13T20:36:16.356Z,5.00
2023-05-13T20:38:46.733Z,5.82
2023-05-13T20:41:13.598Z,4.93
2023-05-13T20:43:44.875Z,5.43
2023-05-13T20:46:18.984Z,4.57
2023-05-13T20:48:51.604Z,4.32
2023-05-13T20:51:18.598Z,4.10
2023-05-13T20:53:47.547Z,3.70
2023-05-13T20:57:04.061Z,3.75
2023-05-13T20:59:31.415Z,3.25
2023-05-13T21:01:58.792Z,4.07
2023-05-13T21:04:25.858Z,4.13
2023-05-13T21:06:57.341Z,4.75
2023-05-13T21:11:52.152Z,4.63
2023-05-13T21:14:19.256Z,4.25
2023-05-13T21:16:46.060Z,3.47
2023-05-13T21:19:22.753Z,3.92
2023-05-13T21:21:50.319Z,3.55
2023-05-13T21:24:18.981Z,3.58
2023-05-13T21:26:47.060Z,3.47
2023-05-13T21:29:13.994Z,3.45
2023-05-13T21:31:41.108Z,3.67
2023-05-13T21:34:08.274Z,2.67
2023-05-13T21:36:38.890Z,3.33
2023-05-13T21:39:07.169Z,2.75
2023-05-13T21:41:34.152Z,3.13
2023-05-13T21:44:01.140Z,2.30
2023-05-13T21:46:28.256Z,2.60
2023-05-13T21:48:55.359Z,2.75
2023-05-13T21:51:22.482Z,2.70
2023-05-13T21:53:49.385Z,3.00
2023-05-13T21:56:16.357Z,3.05
2023-05-13T21:58:44.713Z,3.00
2023-05-13T22:01:11.762Z,3.35
2023-05-13T22:03:38.785Z,3.88
2023-05-13T22:06:05.857Z,2.90
2023-05-13T22:08:33.622Z,2.70
2023-05-13T22:11:01.462Z,3.08
2023-05-13T22:13:28.332Z,2.60
2023-05-13T22:15:55.474Z,2.90
2023-05-13T22:18:23.787Z,3.22
2023-05-13T22:20:51.268Z,2.92
2023-05-13T22:23:18.166Z,3.05
2023-05-13T22:25:45.088Z,3.05
2023-05-13T22:28:12.095Z,2.80
2023-05-13T22:30:39.140Z,3.38
2023-05-13T22:33:06.297Z,2.90
2023-05-13T22:35:36.481Z,3.05
2023-05-13T22:38:06.598Z,3.10
2023-05-13T22:40:33.625Z,2.92
2023-05-13T22:43:00.794Z,2.90
2023-05-13T22:45:27.737Z,3.22
2023-05-13T22:47:55.924Z,2.88
2023-05-13T22:50:23.321Z,2.90
2023-05-13T22:52:50.412Z,2.67
2023-05-13T22:55:17.503Z,2.90
2023-05-13T22:57:44.281Z,2.72
2023-05-13T23:00:12.081Z,2.80
2023-05-13T23:02:38.884Z,2.97
2023-05-13T23:05:06.345Z,2.75
2023-05-13T23:07:33.124Z,2.97
2023-05-13T23:09:59.928Z,3.22
2023-05-13T23:12:26.863Z,3.40
2023-05-13T23:14:53.874Z,3.67
2023-05-13T23:17:20.655Z,3.50
2023-05-13T23:19:47.690Z,3.10
2023-05-13T23:22:14.550Z,3.20
2023-05-13T23:24:41.438Z,3.17
2023-05-13T23:27:08.242Z,3.30
2023-05-13T23:29:35.211Z,2.75
2023-05-13T23:32:03.301Z,3.47
2023-05-13T23:34:31.365Z,3.28
2023-05-13T23:36:58.269Z,3.20
2023-05-13T23:39:25.084Z,2.80
2023-05-13T23:41:51.964Z,3.05
2023-05-13T23:44:19.064Z,3.20
2023-05-13T23:46:45.890Z,3.17
2023-05-13T23:49:13.021Z,3.47
2023-05-13T23:51:39.760Z,3.40
2023-05-13T23:54:08.377Z,3.05
2023-05-13T23:56:35.339Z,3.13
2023-05-13T23:59:02.272Z,3.20
